sensor_id;sensor_type;location;lat;lon;timestamp;pressure;altitude;pressure_sealevel;temperature;humidity
3960;BME280;1994;48.640;8.894;2023-07-09T00:01:21;96531.84;;;23.63;57.16
3960;BME280;1994;48.640;8.894;2023-07-09T00:03:48;96528.78;;;23.70;57.10
3960;BME280;1994;48.640;8.894;2023-07-09T00:06:18;96539.34;;;23.70;57.11
3960;BME280;1994;48.640;8.894;2023-07-09T00:08:45;96537.53;;;23.48;58.00
3960;BME280;1994;48.640;8.894;2023-07-09T00:11:16;96532.81;;;23.37;58.56
3960;BME280;1994;48.640;8.894;2023-07-09T00:13:42;96541.22;;;23.39;59.04
3960;BME280;1994;48.640;8.894;2023-07-09T00:16:16;96538.38;;;23.27;58.48
3960;BME280;1994;48.640;8.894;2023-07-09T00:18:45;96543.25;;;23.42;58.01
3960;BME280;1994;48.640;8.894;2023-07-09T00:21:10;96547.34;;;23.48;57.52
3960;BME280;1994;48.640;8.894;2023-07-09T00:23:36;96537.81;;;23.47;57.57
3960;BME280;1994;48.640;8.894;2023-07-09T00:26:10;96545.75;;;23.47;57.38
3960;BME280;1994;48.640;8.894;2023-07-09T00:28:39;96541.75;;;23.58;56.41
3960;BME280;1994;48.640;8.894;2023-07-09T00:31:13;96547.41;;;23.65;55.93
3960;BME280;1994;48.640;8.894;2023-07-09T00:33:41;96546.97;;;23.71;55.66
3960;BME280;1994;48.640;8.894;2023-07-09T00:36:26;96545.50;;;23.57;56.50
3960;BME280;1994;48.640;8.894;2023-07-09T00:38:52;96547.59;;;23.38;57.29
3960;BME280;1994;48.640;8.894;2023-07-09T00:41:21;96548.69;;;23.37;57.14
3960;BME280;1994;48.640;8.894;2023-07-09T00:43:49;96548.53;;;23.42;56.41
3960;BME280;1994;48.640;8.894;2023-07-09T00:48:58;96547.06;;;23.58;56.38
3960;BME280;1994;48.640;8.894;2023-07-09T00:51:26;96548.78;;;23.54;56.95
3960;BME280;1994;48.640;8.894;2023-07-09T00:54:00;96542.53;;;23.50;57.75
3960;BME280;1994;48.640;8.894;2023-07-09T00:56:38;96546.50;;;23.39;57.69
3960;BME280;1994;48.640;8.894;2023-07-09T00:59:10;96563.59;;;23.33;58.00
3960;BME280;1994;48.640;8.894;2023-07-09T01:01:38;96559.03;;;23.25;58.23
3960;BME280;1994;48.640;8.894;2023-07-09T01:04:09;96568.66;;;23.21;58.86
3960;BME280;1994;48.640;8.894;2023-07-09T01:06:48;96570.69;;;23.24;58.55
3960;BME280;1994;48.640;8.894;2023-07-09T01:09:16;96564.44;;;23.20;58.92
3960;BME280;1994;48.640;8.894;2023-07-09T01:11:42;96570.84;;;23.05;59.17
3960;BME280;1994;48.640;8.894;2023-07-09T01:14:10;96566.41;;;22.92;59.52
3960;BME280;1994;48.640;8.894;2023-07-09T01:16:42;96561.53;;;22.86;59.58
3960;BME280;1994;48.640;8.894;2023-07-09T01:19:08;96562.75;;;22.80;59.82
3960;BME280;1994;48.640;8.894;2023-07-09T01:21:34;96562.28;;;22.78;59.81
3960;BME280;1994;48.640;8.894;2023-07-09T01:24:13;96560.38;;;22.78;59.91
3960;BME280;1994;48.640;8.894;2023-07-09T01:26:40;96556.47;;;22.76;59.79
3960;BME280;1994;48.640;8.894;2023-07-09T01:29:06;96559.84;;;22.68;59.91
3960;BME280;1994;48.640;8.894;2023-07-09T01:31:32;96558.88;;;22.64;60.28
3960;BME280;1994;48.640;8.894;2023-07-09T01:33:58;96560.53;;;22.60;60.12
3960;BME280;1994;48.640;8.894;2023-07-09T01:36:24;96562.13;;;22.61;59.77
3960;BME280;1994;48.640;8.894;2023-07-09T01:38:51;96554.38;;;22.64;59.86
3960;BME280;1994;48.640;8.894;2023-07-09T01:41:18;96554.56;;;22.68;59.89
3960;BME280;1994;48.640;8.894;2023-07-09T01:43:45;96555.44;;;22.77;58.95
3960;BME280;1994;48.640;8.894;2023-07-09T01:46:12;96559.56;;;22.91;59.03
3960;BME280;1994;48.640;8.894;2023-07-09T01:48:41;96555.91;;;23.01;58.36
3960;BME280;1994;48.640;8.894;2023-07-09T01:51:15;96543.28;;;22.98;58.79
3960;BME280;1994;48.640;8.894;2023-07-09T01:53:43;96550.84;;;22.91;58.97
3960;BME280;1994;48.640;8.894;2023-07-09T01:56:10;96550.16;;;22.99;58.93
3960;BME280;1994;48.640;8.894;2023-07-09T01:58:37;96550.25;;;22.94;59.35
3960;BME280;1994;48.640;8.894;2023-07-09T02:01:07;96544.91;;;22.85;59.88
3960;BME280;1994;48.640;8.894;2023-07-09T02:03:34;96549.75;;;22.70;60.40
3960;BME280;1994;48.640;8.894;2023-07-09T02:05:59;96548.66;;;22.71;60.58
3960;BME280;1994;48.640;8.894;2023-07-09T02:08:28;96549.28;;;22.68;60.56
3960;BME280;1994;48.640;8.894;2023-07-09T02:10:53;96554.56;;;22.68;60.62
3960;BME280;1994;48.640;8.894;2023-07-09T02:13:19;96553.00;;;22.67;60.34
3960;BME280;1994;48.640;8.894;2023-07-09T02:15:45;96556.75;;;22.66;60.48
3960;BME280;1994;48.640;8.894;2023-07-09T02:18:12;96558.53;;;22.57;60.67
3960;BME280;1994;48.640;8.894;2023-07-09T02:20:38;96553.25;;;22.57;60.83
3960;BME280;1994;48.640;8.894;2023-07-09T02:23:08;96560.69;;;22.55;61.23
3960;BME280;1994;48.640;8.894;2023-07-09T02:25:34;96560.28;;;22.48;60.93
3960;BME280;1994;48.640;8.894;2023-07-09T02:28:00;96564.38;;;22.40;61.61
3960;BME280;1994;48.640;8.894;2023-07-09T02:30:26;96553.66;;;22.37;61.45
3960;BME280;1994;48.640;8.894;2023-07-09T02:32:52;96563.22;;;22.33;61.50
3960;BME280;1994;48.640;8.894;2023-07-09T02:35:20;96558.75;;;22.20;61.72
3960;BME280;1994;48.640;8.894;2023-07-09T02:37:46;96555.47;;;22.14;62.06
3960;BME280;1994;48.640;8.894;2023-07-09T02:40:13;96547.81;;;22.26;61.74
3960;BME280;1994;48.640;8.894;2023-07-09T02:42:39;96554.25;;;22.34;61.07
3960;BME280;1994;48.640;8.894;2023-07-09T02:45:05;96558.56;;;22.30;61.80
3960;BME280;1994;48.640;8.894;2023-07-09T02:47:31;96557.94;;;22.33;61.47
3960;BME280;1994;48.640;8.894;2023-07-09T02:49:57;96568.13;;;22.26;61.21
3960;BME280;1994;48.640;8.894;2023-07-09T02:52:23;96567.75;;;22.32;61.34
3960;BME280;1994;48.640;8.894;2023-07-09T02:54:48;96573.13;;;22.27;61.72
3960;BME280;1994;48.640;8.894;2023-07-09T02:57:14;96574.03;;;22.23;61.65
3960;BME280;1994;48.640;8.894;2023-07-09T02:59:40;96573.03;;;22.19;61.95
3960;BME280;1994;48.640;8.894;2023-07-09T03:02:06;96577.16;;;22.11;61.82
3960;BME280;1994;48.640;8.894;2023-07-09T03:04:31;96574.41;;;22.16;61.83
3960;BME280;1994;48.640;8.894;2023-07-09T03:06:57;96582.03;;;22.18;61.51
3960;BME280;1994;48.640;8.894;2023-07-09T03:09:25;96582.03;;;22.18;61.85
3960;BME280;1994;48.640;8.894;2023-07-09T03:11:51;96575.19;;;22.17;61.76
3960;BME280;1994;48.640;8.894;2023-07-09T03:14:16;96578.50;;;22.09;61.60
3960;BME280;1994;48.640;8.894;2023-07-09T03:16:43;96574.31;;;22.08;61.94
3960;BME280;1994;48.640;8.894;2023-07-09T03:19:08;96576.34;;;22.11;61.32
3960;BME280;1994;48.640;8.894;2023-07-09T03:21:34;96581.84;;;22.01;62.27
3960;BME280;1994;48.640;8.894;2023-07-09T03:24:00;96586.53;;;21.90;62.44
3960;BME280;1994;48.640;8.894;2023-07-09T03:26:26;96591.13;;;21.85;62.67
3960;BME280;1994;48.640;8.894;2023-07-09T03:28:53;96585.34;;;21.83;62.50
3960;BME280;1994;48.640;8.894;2023-07-09T03:31:19;96590.63;;;21.83;62.76
3960;BME280;1994;48.640;8.894;2023-07-09T03:33:47;96591.03;;;21.90;62.47
3960;BME280;1994;48.640;8.894;2023-07-09T03:36:13;96588.88;;;21.92;62.58
3960;BME280;1994;48.640;8.894;2023-07-09T03:38:39;96598.63;;;21.91;62.30
3960;BME280;1994;48.640;8.894;2023-07-09T03:41:06;96586.91;;;21.84;62.80
3960;BME280;1994;48.640;8.894;2023-07-09T03:43:32;96593.78;;;21.85;62.60
3960;BME280;1994;48.640;8.894;2023-07-09T03:45:58;96588.09;;;21.78;63.16
3960;BME280;1994;48.640;8.894;2023-07-09T03:48:24;96594.44;;;21.77;63.24
3960;BME280;1994;48.640;8.894;2023-07-09T03:50:50;96592.97;;;21.71;63.30
3960;BME280;1994;48.640;8.894;2023-07-09T03:53:16;96594.09;;;21.65;63.65
3960;BME280;1994;48.640;8.894;2023-07-09T03:55:50;96597.81;;;21.64;63.85
3960;BME280;1994;48.640;8.894;2023-07-09T03:58:16;96593.56;;;21.68;63.91
3960;BME280;1994;48.640;8.894;2023-07-09T04:00:42;96599.59;;;21.68;63.82
3960;BME280;1994;48.640;8.894;2023-07-09T04:03:08;96592.41;;;21.74;63.70
3960;BME280;1994;48.640;8.894;2023-07-09T04:05:34;96593.34;;;21.78;63.43
3960;BME280;1994;48.640;8.894;2023-07-09T04:08:00;96592.78;;;21.81;63.60
3960;BME280;1994;48.640;8.894;2023-07-09T04:10:25;96594.16;;;21.92;63.29
3960;BME280;1994;48.640;8.894;2023-07-09T04:12:51;96591.63;;;21.87;63.13
3960;BME280;1994;48.640;8.894;2023-07-09T04:15:17;96594.34;;;21.82;63.48
3960;BME280;1994;48.640;8.894;2023-07-09T04:17:43;96602.53;;;21.80;63.52
3960;BME280;1994;48.640;8.894;2023-07-09T04:20:10;96599.22;;;21.75;64.16
3960;BME280;1994;48.640;8.894;2023-07-09T04:22:36;96609.78;;;21.75;64.11
3960;BME280;1994;48.640;8.894;2023-07-09T04:25:04;96602.78;;;21.52;65.04
3960;BME280;1994;48.640;8.894;2023-07-09T04:27:31;96601.06;;;21.29;65.92
3960;BME280;1994;48.640;8.894;2023-07-09T04:29:57;96604.19;;;21.31;66.17
3960;BME280;1994;48.640;8.894;2023-07-09T04:32:23;96595.81;;;21.42;65.65
3960;BME280;1994;48.640;8.894;2023-07-09T04:34:48;96596.00;;;21.46;65.81
3960;BME280;1994;48.640;8.894;2023-07-09T04:37:14;96595.28;;;21.59;65.02
3960;BME280;1994;48.640;8.894;2023-07-09T04:39:43;96599.38;;;21.65;65.09
3960;BME280;1994;48.640;8.894;2023-07-09T04:42:13;96609.19;;;21.78;64.63
3960;BME280;1994;48.640;8.894;2023-07-09T04:44:40;96607.91;;;21.89;64.07
3960;BME280;1994;48.640;8.894;2023-07-09T04:47:06;96611.25;;;21.94;63.87
3960;BME280;1994;48.640;8.894;2023-07-09T04:49:32;96613.50;;;21.87;63.94
3960;BME280;1994;48.640;8.894;2023-07-09T04:51:58;96611.72;;;21.96;63.96
3960;BME280;1994;48.640;8.894;2023-07-09T04:54:25;96603.91;;;22.05;63.71
3960;BME280;1994;48.640;8.894;2023-07-09T04:57:00;96615.47;;;22.09;63.05
3960;BME280;1994;48.640;8.894;2023-07-09T04:59:26;96614.88;;;22.12;63.09
3960;BME280;1994;48.640;8.894;2023-07-09T05:01:51;96620.06;;;22.17;62.69
3960;BME280;1994;48.640;8.894;2023-07-09T05:04:17;96621.13;;;22.16;62.54
3960;BME280;1994;48.640;8.894;2023-07-09T05:06:43;96619.94;;;22.08;63.17
3960;BME280;1994;48.640;8.894;2023-07-09T05:09:08;96617.44;;;22.17;63.28
3960;BME280;1994;48.640;8.894;2023-07-09T05:11:35;96613.91;;;22.08;63.65
3960;BME280;1994;48.640;8.894;2023-07-09T05:14:03;96617.81;;;21.97;63.75
3960;BME280;1994;48.640;8.894;2023-07-09T05:16:29;96619.94;;;22.08;63.26
3960;BME280;1994;48.640;8.894;2023-07-09T05:18:55;96621.53;;;22.09;63.48
3960;BME280;1994;48.640;8.894;2023-07-09T05:21:21;96622.28;;;21.96;64.29
3960;BME280;1994;48.640;8.894;2023-07-09T05:23:47;96628.94;;;21.94;63.65
3960;BME280;1994;48.640;8.894;2023-07-09T05:26:13;96625.63;;;22.02;63.35
3960;BME280;1994;48.640;8.894;2023-07-09T05:28:38;96626.63;;;22.06;63.36
3960;BME280;1994;48.640;8.894;2023-07-09T05:31:05;96624.63;;;21.98;63.32
3960;BME280;1994;48.640;8.894;2023-07-09T05:33:31;96630.31;;;22.05;63.29
3960;BME280;1994;48.640;8.894;2023-07-09T05:35:57;96621.72;;;22.13;63.49
3960;BME280;1994;48.640;8.894;2023-07-09T05:38:23;96631.00;;;22.24;62.72
3960;BME280;1994;48.640;8.894;2023-07-09T05:41:00;96636.19;;;22.29;63.05
3960;BME280;1994;48.640;8.894;2023-07-09T05:43:26;96628.84;;;22.26;63.37
3960;BME280;1994;48.640;8.894;2023-07-09T05:45:52;96623.25;;;22.41;63.43
3960;BME280;1994;48.640;8.894;2023-07-09T05:48:18;96625.41;;;22.39;63.37
3960;BME280;1994;48.640;8.894;2023-07-09T05:50:43;96627.16;;;22.57;63.36
3960;BME280;1994;48.640;8.894;2023-07-09T05:53:09;96628.88;;;22.75;62.02
3960;BME280;1994;48.640;8.894;2023-07-09T05:55:35;96624.16;;;22.85;62.26
3960;BME280;1994;48.640;8.894;2023-07-09T05:58:00;96625.28;;;22.93;61.63
3960;BME280;1994;48.640;8.894;2023-07-09T06:00:26;96632.41;;;23.06;62.71
3960;BME280;1994;48.640;8.894;2023-07-09T06:02:52;96637.97;;;23.18;62.02
3960;BME280;1994;48.640;8.894;2023-07-09T06:05:17;96636.75;;;23.24;61.72
3960;BME280;1994;48.640;8.894;2023-07-09T06:07:43;96638.59;;;23.37;61.30
3960;BME280;1994;48.640;8.894;2023-07-09T06:10:09;96641.34;;;23.54;61.08
3960;BME280;1994;48.640;8.894;2023-07-09T06:12:35;96641.44;;;23.71;60.61
3960;BME280;1994;48.640;8.894;2023-07-09T06:15:01;96645.25;;;23.87;60.05
3960;BME280;1994;48.640;8.894;2023-07-09T06:17:27;96641.50;;;23.88;58.90
3960;BME280;1994;48.640;8.894;2023-07-09T06:19:53;96643.53;;;24.13;58.45
3960;BME280;1994;48.640;8.894;2023-07-09T06:22:19;96636.69;;;24.29;57.80
3960;BME280;1994;48.640;8.894;2023-07-09T06:24:45;96643.78;;;24.50;57.53
3960;BME280;1994;48.640;8.894;2023-07-09T06:27:11;96646.47;;;24.59;56.56
3960;BME280;1994;48.640;8.894;2023-07-09T06:29:37;96649.69;;;24.56;57.32
3960;BME280;1994;48.640;8.894;2023-07-09T06:32:04;96640.56;;;24.62;56.42
3960;BME280;1994;48.640;8.894;2023-07-09T06:34:29;96629.78;;;24.75;56.48
3960;BME280;1994;48.640;8.894;2023-07-09T06:36:56;96631.09;;;24.86;56.19
3960;BME280;1994;48.640;8.894;2023-07-09T06:39:22;96642.94;;;24.97;55.46
3960;BME280;1994;48.640;8.894;2023-07-09T06:41:48;96637.00;;;25.00;55.38
3960;BME280;1994;48.640;8.894;2023-07-09T06:44:14;96642.94;;;25.23;54.79
3960;BME280;1994;48.640;8.894;2023-07-09T06:46:40;96643.09;;;25.35;53.95
3960;BME280;1994;48.640;8.894;2023-07-09T06:49:06;96640.88;;;25.54;53.42
3960;BME280;1994;48.640;8.894;2023-07-09T06:51:32;96643.84;;;25.61;52.74
3960;BME280;1994;48.640;8.894;2023-07-09T06:53:58;96639.09;;;25.75;52.57
3960;BME280;1994;48.640;8.894;2023-07-09T06:56:24;96647.97;;;25.96;52.35
3960;BME280;1994;48.640;8.894;2023-07-09T06:58:50;96637.75;;;26.15;52.16
3960;BME280;1994;48.640;8.894;2023-07-09T07:01:16;96643.16;;;26.27;51.74
3960;BME280;1994;48.640;8.894;2023-07-09T07:03:42;96635.84;;;26.53;51.46
3960;BME280;1994;48.640;8.894;2023-07-09T07:06:08;96634.91;;;26.49;49.81
3960;BME280;1994;48.640;8.894;2023-07-09T07:08:34;96638.06;;;26.71;49.81
3960;BME280;1994;48.640;8.894;2023-07-09T07:11:03;96637.72;;;27.02;49.03
3960;BME280;1994;48.640;8.894;2023-07-09T07:13:32;96636.22;;;27.13;48.40
3960;BME280;1994;48.640;8.894;2023-07-09T07:15:59;96638.28;;;27.28;46.84
3960;BME280;1994;48.640;8.894;2023-07-09T07:18:25;96633.03;;;27.40;46.38
3960;BME280;1994;48.640;8.894;2023-07-09T07:20:51;96630.84;;;27.54;46.83
3960;BME280;1994;48.640;8.894;2023-07-09T07:23:17;96628.78;;;27.71;44.62
3960;BME280;1994;48.640;8.894;2023-07-09T07:25:47;96633.81;;;27.85;44.71
3960;BME280;1994;48.640;8.894;2023-07-09T07:28:13;96629.94;;;27.94;43.26
3960;BME280;1994;48.640;8.894;2023-07-09T07:30:39;96628.97;;;28.23;42.09
3960;BME280;1994;48.640;8.894;2023-07-09T07:33:05;96626.31;;;28.47;42.44
3960;BME280;1994;48.640;8.894;2023-07-09T07:35:31;96630.09;;;28.58;42.16
3960;BME280;1994;48.640;8.894;2023-07-09T07:37:57;96633.88;;;28.45;41.46
3960;BME280;1994;48.640;8.894;2023-07-09T07:40:23;96634.06;;;28.64;41.55
3960;BME280;1994;48.640;8.894;2023-07-09T07:42:49;96635.63;;;28.65;40.39
3960;BME280;1994;48.640;8.894;2023-07-09T07:45:14;96634.31;;;28.71;39.72
3960;BME280;1994;48.640;8.894;2023-07-09T07:47:40;96631.72;;;28.86;39.72
3960;BME280;1994;48.640;8.894;2023-07-09T07:50:07;96623.56;;;29.07;40.03
3960;BME280;1994;48.640;8.894;2023-07-09T07:52:34;96619.94;;;29.27;39.48
3960;BME280;1994;48.640;8.894;2023-07-09T07:55:06;96618.41;;;29.41;37.41
3960;BME280;1994;48.640;8.894;2023-07-09T07:57:33;96621.19;;;29.45;38.09
3960;BME280;1994;48.640;8.894;2023-07-09T07:59:59;96630.84;;;29.49;38.41
3960;BME280;1994;48.640;8.894;2023-07-09T08:02:25;96617.38;;;29.46;39.30
3960;BME280;1994;48.640;8.894;2023-07-09T08:04:51;96614.38;;;29.75;38.72
3960;BME280;1994;48.640;8.894;2023-07-09T08:07:18;96618.50;;;29.88;39.44
3960;BME280;1994;48.640;8.894;2023-07-09T08:09:45;96617.69;;;30.15;39.27
3960;BME280;1994;48.640;8.894;2023-07-09T08:12:13;96613.13;;;30.15;37.10
3960;BME280;1994;48.640;8.894;2023-07-09T08:14:41;96616.28;;;30.21;37.02
3960;BME280;1994;48.640;8.894;2023-07-09T08:17:08;96619.41;;;30.23;37.47
3960;BME280;1994;48.640;8.894;2023-07-09T08:19:49;96618.63;;;30.22;37.17
3960;BME280;1994;48.640;8.894;2023-07-09T08:22:15;96622.69;;;30.16;36.64
3960;BME280;1994;48.640;8.894;2023-07-09T08:24:42;96619.47;;;30.26;35.61
3960;BME280;1994;48.640;8.894;2023-07-09T08:27:08;96620.34;;;30.65;36.27
3960;BME280;1994;48.640;8.894;2023-07-09T08:29:35;96619.00;;;31.09;36.31
3960;BME280;1994;48.640;8.894;2023-07-09T08:32:02;96625.03;;;31.21;34.74
3960;BME280;1994;48.640;8.894;2023-07-09T08:34:28;96620.72;;;31.55;35.15
3960;BME280;1994;48.640;8.894;2023-07-09T08:36:54;96618.31;;;31.50;34.51
3960;BME280;1994;48.640;8.894;2023-07-09T08:39:20;96616.38;;;31.69;34.49
3960;BME280;1994;48.640;8.894;2023-07-09T08:42:01;96626.81;;;31.97;33.61
3960;BME280;1994;48.640;8.894;2023-07-09T08:50:35;96621.97;;;32.77;31.93
3960;BME280;1994;48.640;8.894;2023-07-09T08:53:01;96625.47;;;32.55;32.32
3960;BME280;1994;48.640;8.894;2023-07-09T08:55:29;96635.28;;;32.44;31.12
3960;BME280;1994;48.640;8.894;2023-07-09T08:58:09;96631.25;;;32.31;32.10
3960;BME280;1994;48.640;8.894;2023-07-09T09:01:19;96632.91;;;32.65;32.31
3960;BME280;1994;48.640;8.894;2023-07-09T09:04:15;96632.31;;;32.52;31.60
3960;BME280;1994;48.640;8.894;2023-07-09T09:06:57;96627.44;;;32.84;31.77
3960;BME280;1994;48.640;8.894;2023-07-09T09:14:44;96633.91;;;33.09;31.36
3960;BME280;1994;48.640;8.894;2023-07-09T09:17:15;96630.06;;;33.10;30.12
3960;BME280;1994;48.640;8.894;2023-07-09T09:19:57;96634.44;;;32.92;31.28
3960;BME280;1994;48.640;8.894;2023-07-09T09:22:38;96631.41;;;33.23;31.01
3960;BME280;1994;48.640;8.894;2023-07-09T09:25:26;96628.50;;;33.71;29.42
3960;BME280;1994;48.640;8.894;2023-07-09T09:27:53;96634.84;;;33.93;29.87
3960;BME280;1994;48.640;8.894;2023-07-09T09:30:22;96628.09;;;34.09;29.93
3960;BME280;1994;48.640;8.894;2023-07-09T09:32:56;96634.59;;;33.68;29.30
3960;BME280;1994;48.640;8.894;2023-07-09T09:35:41;96624.50;;;33.95;29.49
3960;BME280;1994;48.640;8.894;2023-07-09T09:38:17;96626.88;;;33.63;29.11
3960;BME280;1994;48.640;8.894;2023-07-09T09:40:44;96627.81;;;33.78;28.70
3960;BME280;1994;48.640;8.894;2023-07-09T09:43:19;96628.41;;;33.61;28.68
3960;BME280;1994;48.640;8.894;2023-07-09T09:45:49;96620.28;;;33.94;28.79
3960;BME280;1994;48.640;8.894;2023-07-09T09:48:29;96618.41;;;33.61;29.03
3960;BME280;1994;48.640;8.894;2023-07-09T09:50:56;96613.88;;;33.69;29.50
3960;BME280;1994;48.640;8.894;2023-07-09T09:53:28;96607.78;;;33.72;29.09
3960;BME280;1994;48.640;8.894;2023-07-09T09:55:56;96602.84;;;33.41;29.70
3960;BME280;1994;48.640;8.894;2023-07-09T09:58:29;96609.81;;;33.49;28.99
3960;BME280;1994;48.640;8.894;2023-07-09T10:00:57;96598.56;;;33.73;27.49
3960;BME280;1994;48.640;8.894;2023-07-09T10:03:34;96599.78;;;34.26;26.92
3960;BME280;1994;48.640;8.894;2023-07-09T10:09:02;96597.25;;;34.47;27.72
3960;BME280;1994;48.640;8.894;2023-07-09T10:11:45;96589.34;;;34.75;27.34
3960;BME280;1994;48.640;8.894;2023-07-09T10:17:00;96592.78;;;34.11;26.03
3960;BME280;1994;48.640;8.894;2023-07-09T10:19:35;96590.00;;;34.04;25.85
3960;BME280;1994;48.640;8.894;2023-07-09T10:25:33;96584.88;;;34.32;27.29
3960;BME280;1994;48.640;8.894;2023-07-09T10:28:52;96590.09;;;34.68;27.21
3960;BME280;1994;48.640;8.894;2023-07-09T10:34:22;96585.69;;;33.89;27.07
3960;BME280;1994;48.640;8.894;2023-07-09T10:37:11;96586.47;;;33.93;25.55
3960;BME280;1994;48.640;8.894;2023-07-09T10:39:51;96586.47;;;33.93;25.58
3960;BME280;1994;48.640;8.894;2023-07-09T10:42:32;96574.59;;;33.94;25.29
3960;BME280;1994;48.640;8.894;2023-07-09T10:45:14;96570.22;;;33.79;24.48
3960;BME280;1994;48.640;8.894;2023-07-09T10:47:48;96575.94;;;34.21;24.20
3960;BME280;1994;48.640;8.894;2023-07-09T10:50:38;96572.38;;;34.64;24.76
3960;BME280;1994;48.640;8.894;2023-07-09T10:53:41;96554.09;;;35.01;24.72
3960;BME280;1994;48.640;8.894;2023-07-09T10:56:14;96563.94;;;34.69;24.91
3960;BME280;1994;48.640;8.894;2023-07-09T10:59:03;96564.72;;;34.69;25.34
3960;BME280;1994;48.640;8.894;2023-07-09T11:01:40;96564.88;;;35.01;26.07
3960;BME280;1994;48.640;8.894;2023-07-09T11:06:54;96548.34;;;35.09;25.13
3960;BME280;1994;48.640;8.894;2023-07-09T11:09:35;96550.38;;;35.30;26.98
3960;BME280;1994;48.640;8.894;2023-07-09T11:12:22;96555.69;;;35.12;25.87
3960;BME280;1994;48.640;8.894;2023-07-09T11:14:56;96561.53;;;35.25;25.92
3960;BME280;1994;48.640;8.894;2023-07-09T11:17:26;96553.47;;;35.39;26.46
3960;BME280;1994;48.640;8.894;2023-07-09T11:20:00;96557.34;;;35.59;25.78
3960;BME280;1994;48.640;8.894;2023-07-09T11:22:39;96543.53;;;35.71;25.27
3960;BME280;1994;48.640;8.894;2023-07-09T11:25:11;96551.94;;;35.38;26.32
3960;BME280;1994;48.640;8.894;2023-07-09T11:28:02;96547.16;;;34.89;24.62
3960;BME280;1994;48.640;8.894;2023-07-09T11:30:29;96552.63;;;35.14;25.95
3960;BME280;1994;48.640;8.894;2023-07-09T11:33:02;96549.53;;;35.12;25.98
3960;BME280;1994;48.640;8.894;2023-07-09T11:35:49;96547.63;;;35.23;25.70
3960;BME280;1994;48.640;8.894;2023-07-09T11:38:23;96540.31;;;35.20;25.27
3960;BME280;1994;48.640;8.894;2023-07-09T11:40:55;96534.94;;;35.20;23.89
3960;BME280;1994;48.640;8.894;2023-07-09T11:43:48;96550.31;;;35.09;25.04
3960;BME280;1994;48.640;8.894;2023-07-09T11:46:20;96541.75;;;34.86;24.86
3960;BME280;1994;48.640;8.894;2023-07-09T11:48:49;96540.41;;;35.48;23.19
3960;BME280;1994;48.640;8.894;2023-07-09T11:51:37;96538.47;;;35.31;22.16
3960;BME280;1994;48.640;8.894;2023-07-09T11:54:05;96538.09;;;35.50;22.85
3960;BME280;1994;48.640;8.894;2023-07-09T11:56:35;96545.09;;;35.86;21.63
3960;BME280;1994;48.640;8.894;2023-07-09T11:59:00;96544.31;;;35.96;20.94
3960;BME280;1994;48.640;8.894;2023-07-09T12:01:43;96541.22;;;35.87;21.12
3960;BME280;1994;48.640;8.894;2023-07-09T12:04:15;96541.22;;;36.08;22.08
3960;BME280;1994;48.640;8.894;2023-07-09T12:06:43;96545.06;;;36.28;22.39
3960;BME280;1994;48.640;8.894;2023-07-09T12:09:18;96537.38;;;35.74;22.63
3960;BME280;1994;48.640;8.894;2023-07-09T12:11:48;96535.44;;;35.92;22.89
3960;BME280;1994;48.640;8.894;2023-07-09T12:14:20;96524.53;;;36.62;22.80
3960;BME280;1994;48.640;8.894;2023-07-09T12:16:51;96535.63;;;36.88;21.64
3960;BME280;1994;48.640;8.894;2023-07-09T12:19:20;96524.63;;;37.34;22.19
3960;BME280;1994;48.640;8.894;2023-07-09T12:21:51;96530.16;;;37.13;21.13
3960;BME280;1994;48.640;8.894;2023-07-09T12:24:28;96520.34;;;36.47;22.09
3960;BME280;1994;48.640;8.894;2023-07-09T12:27:00;96521.94;;;36.27;22.22
3960;BME280;1994;48.640;8.894;2023-07-09T12:29:28;96517.16;;;36.80;22.88
3960;BME280;1994;48.640;8.894;2023-07-09T12:31:56;96517.81;;;37.05;21.49
3960;BME280;1994;48.640;8.894;2023-07-09T12:34:24;96511.34;;;37.57;22.40
3960;BME280;1994;48.640;8.894;2023-07-09T12:36:51;96507.56;;;37.44;21.11
3960;BME280;1994;48.640;8.894;2023-07-09T12:39:26;96508.13;;;37.76;20.83
3960;BME280;1994;48.640;8.894;2023-07-09T12:41:59;96501.53;;;38.21;20.28
3960;BME280;1994;48.640;8.894;2023-07-09T12:44:26;96503.94;;;38.12;19.57
3960;BME280;1994;48.640;8.894;2023-07-09T12:46:54;96506.31;;;36.87;20.51
3960;BME280;1994;48.640;8.894;2023-07-09T12:49:23;96490.72;;;37.22;21.04
3960;BME280;1994;48.640;8.894;2023-07-09T12:51:49;96481.78;;;37.80;20.44
3960;BME280;1994;48.640;8.894;2023-07-09T12:54:18;96483.53;;;37.60;21.27
3960;BME280;1994;48.640;8.894;2023-07-09T12:56:45;96479.50;;;37.24;20.73
3960;BME280;1994;48.640;8.894;2023-07-09T12:59:37;96472.16;;;37.28;20.32
3960;BME280;1994;48.640;8.894;2023-07-09T13:02:21;96471.59;;;36.89;19.48
3960;BME280;1994;48.640;8.894;2023-07-09T13:04:50;96478.72;;;37.27;18.67
3960;BME280;1994;48.640;8.894;2023-07-09T13:09:52;96469.72;;;37.44;19.06
3960;BME280;1994;48.640;8.894;2023-07-09T13:12:20;96458.41;;;37.05;19.60
3960;BME280;1994;48.640;8.894;2023-07-09T13:14:55;96458.59;;;36.63;20.39
3960;BME280;1994;48.640;8.894;2023-07-09T13:17:22;96452.81;;;37.33;20.79
3960;BME280;1994;48.640;8.894;2023-07-09T13:19:47;96451.75;;;37.71;19.01
3960;BME280;1994;48.640;8.894;2023-07-09T13:22:18;96450.50;;;37.79;19.97
3960;BME280;1994;48.640;8.894;2023-07-09T13:24:45;96452.88;;;37.77;19.48
3960;BME280;1994;48.640;8.894;2023-07-09T13:27:15;96447.59;;;37.05;19.48
3960;BME280;1994;48.640;8.894;2023-07-09T13:29:42;96447.16;;;37.68;18.97
3960;BME280;1994;48.640;8.894;2023-07-09T13:32:13;96452.75;;;37.87;19.17
3960;BME280;1994;48.640;8.894;2023-07-09T13:34:40;96446.75;;;38.10;19.67
3960;BME280;1994;48.640;8.894;2023-07-09T13:37:13;96441.44;;;38.03;20.58
3960;BME280;1994;48.640;8.894;2023-07-09T13:39:41;96446.28;;;37.78;20.20
3960;BME280;1994;48.640;8.894;2023-07-09T13:42:17;96445.91;;;37.25;20.58
3960;BME280;1994;48.640;8.894;2023-07-09T13:44:45;96443.19;;;36.67;20.54
3960;BME280;1994;48.640;8.894;2023-07-09T13:47:17;96443.94;;;36.67;20.62
3960;BME280;1994;48.640;8.894;2023-07-09T13:49:45;96438.44;;;36.85;21.04
3960;BME280;1994;48.640;8.894;2023-07-09T13:52:19;96439.38;;;37.26;21.09
3960;BME280;1994;48.640;8.894;2023-07-09T13:54:46;96440.38;;;38.27;19.68
3960;BME280;1994;48.640;8.894;2023-07-09T13:57:21;96434.41;;;38.09;18.19
3960;BME280;1994;48.640;8.894;2023-07-09T13:59:47;96436.44;;;37.54;18.20
3960;BME280;1994;48.640;8.894;2023-07-09T14:02:31;96437.06;;;37.72;18.01
3960;BME280;1994;48.640;8.894;2023-07-09T14:05:02;96437.47;;;38.11;18.39
3960;BME280;1994;48.640;8.894;2023-07-09T14:07:36;96440.16;;;38.48;18.01